createdAt,value
2023-04-14T00:01:21.146Z,3.10
2023-04-14T00:03:48.714Z,3.63
2023-04-14T00:06:16.327Z,3.80
2023-04-14T00:08:43.795Z,3.27
2023-04-14T00:11:11.326Z,3.10
2023-04-14T00:13:39.061Z,3.70
2023-04-14T00:16:08.532Z,3.53
2023-04-14T00:18:36.018Z,3.53
2023-04-14T00:21:03.528Z,3.57
2023-04-14T00:23:31.058Z,5.70
2023-04-14T00:25:58.637Z,3.40
2023-04-14T00:28:26.093Z,2.90
2023-04-14T00:30:53.628Z,2.63
2023-04-14T00:33:22.468Z,5.17
2023-04-14T00:35:49.955Z,9.33
2023-04-14T00:38:17.420Z,3.80
2023-04-14T00:40:44.909Z,3.70
2023-04-14T00:43:12.364Z,3.80
2023-04-14T00:45:45.683Z,3.53
2023-04-14T00:48:15.064Z,4.13
2023-04-14T00:50:44.606Z,3.80
2023-04-14T00:53:12.743Z,3.80
2023-04-14T00:55:41.485Z,4.60
2023-04-14T00:58:09.746Z,4.23
2023-04-14T01:00:38.743Z,4.00
2023-04-14T01:03:07.183Z,4.47
2023-04-14T01:05:35.116Z,4.30
2023-04-14T01:08:04.670Z,4.97
2023-04-14T01:10:39.079Z,5.70
2023-04-14T01:13:24.288Z,4.50
2023-04-14T01:15:57.389Z,4.50
2023-04-14T01:18:34.113Z,4.03
2023-04-14T01:21:09.093Z,3.80
2023-04-14T01:23:42.121Z,3.43
2023-04-14T01:26:20.119Z,3.90
2023-04-14T01:29:27.556Z,3.97
2023-04-14T01:32:03.166Z,4.50
2023-04-14T01:34:35.822Z,4.07
2023-04-14T01:37:07.689Z,4.40
2023-04-14T01:39:38.815Z,3.70
2023-04-14T01:42:11.390Z,4.40
2023-04-14T01:44:41.255Z,5.03
2023-04-14T01:47:13.843Z,5.17
2023-04-14T01:49:42.723Z,5.37
2023-04-14T01:52:12.330Z,5.43
2023-04-14T01:54:42.129Z,6.50
2023-04-14T01:57:12.114Z,5.57
2023-04-14T01:59:42.422Z,4.50
2023-04-14T02:02:13.888Z,5.07
2023-04-14T02:04:43.334Z,5.77
2023-04-14T02:07:12.523Z,5.77
2023-04-14T02:09:42.172Z,6.10
2023-04-14T02:12:12.200Z,6.47
2023-04-14T02:14:41.591Z,8.10
2023-04-14T02:17:12.508Z,7.83
2023-04-14T02:19:42.010Z,8.83
2023-04-14T02:22:09.528Z,8.90
2023-04-14T02:24:37.076Z,9.83
2023-04-14T02:27:09.844Z,10.03
2023-04-14T02:29:40.613Z,11.67
2023-04-14T02:32:13.338Z,12.40
2023-04-14T02:34:53.298Z,11.87
2023-04-14T02:37:25.082Z,11.80
2023-04-14T02:39:59.791Z,12.47
2023-04-14T02:42:29.641Z,12.27
2023-04-14T02:45:01.746Z,11.13
2023-04-14T02:47:35.910Z,12.03
2023-04-14T02:50:07.678Z,12.43
2023-04-14T02:52:36.213Z,13.77
2023-04-14T02:55:05.160Z,16.17
2023-04-14T02:57:34.149Z,15.33
2023-04-14T03:00:03.587Z,15.43
2023-04-14T03:02:33.421Z,16.37
2023-04-14T03:05:01.782Z,18.00
2023-04-14T03:07:30.299Z,16.93
2023-04-14T03:09:59.065Z,14.00
2023-04-14T03:12:28.433Z,12.87
2023-04-14T03:14:56.691Z,14.80
2023-04-14T03:17:24.828Z,15.53
2023-04-14T03:19:55.990Z,13.43
2023-04-14T03:22:27.012Z,13.13
2023-04-14T03:24:58.135Z,13.57
2023-04-14T03:27:27.930Z,14.17
2023-04-14T03:29:59.222Z,14.87
2023-04-14T03:32:30.294Z,14.43
2023-04-14T03:35:01.343Z,10.93
2023-04-14T03:37:29.963Z,11.90
2023-04-14T03:40:00.520Z,13.57
2023-04-14T03:42:30.169Z,13.37
2023-04-14T03:45:00.432Z,12.00
2023-04-14T03:47:31.503Z,12.87
2023-04-14T03:50:01.731Z,14.23
2023-04-14T03:52:32.168Z,12.73
2023-04-14T03:55:06.527Z,13.27
2023-04-14T03:57:37.071Z,13.03
2023-04-14T04:00:08.495Z,13.43
2023-04-14T04:02:37.411Z,14.23
2023-04-14T04:05:08.449Z,14.10
2023-04-14T04:07:36.872Z,14.03
2023-04-14T04:10:06.149Z,14.47
2023-04-14T04:12:34.186Z,14.20
2023-04-14T04:15:02.278Z,14.47
2023-04-14T04:17:33.493Z,14.23
2023-04-14T04:20:03.146Z,13.00
2023-04-14T04:22:35.996Z,13.93
2023-04-14T04:25:04.101Z,12.63
2023-04-14T04:27:31.842Z,11.93
2023-04-14T04:29:59.608Z,12.73
2023-04-14T04:32:28.090Z,11.87
2023-04-14T04:34:56.648Z,12.67
2023-04-14T04:37:28.631Z,12.47
2023-04-14T04:39:58.970Z,11.40
2023-04-14T04:42:26.521Z,11.63
2023-04-14T04:44:53.996Z,11.37
2023-04-14T04:47:21.540Z,11.47
2023-04-14T04:49:49.054Z,9.43
2023-04-14T04:52:16.520Z,10.43
2023-04-14T04:54:45.330Z,9.60
2023-04-14T04:57:14.120Z,9.80
2023-04-14T04:59:41.694Z,8.73
2023-04-14T05:02:09.191Z,9.37
2023-04-14T05:04:36.722Z,8.93
2023-04-14T05:07:04.438Z,8.33
2023-04-14T05:09:31.934Z,8.70
2023-04-14T05:11:59.449Z,8.63
2023-04-14T05:14:28.259Z,8.17
2023-04-14T05:16:55.804Z,8.00
2023-04-14T05:19:23.500Z,8.93
2023-04-14T05:21:51.052Z,9.80
2023-04-14T05:24:18.519Z,10.63
2023-04-14T05:27:01.830Z,9.97
2023-04-14T05:29:34.962Z,9.43
2023-04-14T05:32:02.422Z,9.60
2023-04-14T05:34:29.888Z,8.97
2023-04-14T05:36:57.347Z,9.90
2023-04-14T05:39:24.810Z,9.83
2023-04-14T05:41:52.280Z,8.83
2023-04-14T05:44:19.743Z,9.97
2023-04-14T05:46:48.640Z,9.63
2023-04-14T05:49:16.110Z,9.70
2023-04-14T05:51:43.652Z,10.17
2023-04-14T05:54:11.105Z,9.70
2023-04-14T05:56:38.617Z,10.27
2023-04-14T05:59:06.097Z,9.80
2023-04-14T06:01:33.556Z,10.57
2023-04-14T06:04:03.823Z,10.30
2023-04-14T06:06:32.530Z,11.33
2023-04-14T06:09:00.238Z,11.27
2023-04-14T06:11:27.863Z,14.77
2023-04-14T06:13:55.319Z,13.40
2023-04-14T06:16:22.865Z,11.70
2023-04-14T06:18:50.390Z,12.57
2023-04-14T06:21:19.169Z,9.77
2023-04-14T06:23:46.632Z,11.17
2023-04-14T06:26:14.137Z,10.97
2023-04-14T06:28:43.671Z,11.00
2023-04-14T06:31:11.449Z,12.77
2023-04-14T06:33:39.085Z,12.87
2023-04-14T06:36:07.182Z,12.17
2023-04-14T06:38:36.042Z,11.50
2023-04-14T06:41:03.480Z,11.23
2023-04-14T06:43:30.927Z,11.57
2023-04-14T06:45:58.430Z,5.87
2023-04-14T06:48:27.250Z,8.80
2023-04-14T06:50:55.704Z,10.87
2023-04-14T06:53:23.575Z,10.23
2023-04-14T06:55:59.261Z,10.80
2023-04-14T06:58:28.145Z,9.37
2023-04-14T07:00:57.041Z,9.70
2023-04-14T07:03:24.706Z,9.93
2023-04-14T07:05:52.994Z,10.70
2023-04-14T07:08:21.181Z,10.30
2023-04-14T07:10:49.097Z,9.17
2023-04-14T07:13:17.905Z,7.33
2023-04-14T07:15:46.825Z,6.90
2023-04-14T07:18:14.386Z,7.67
2023-04-14T07:20:41.865Z,7.33
2023-04-14T07:23:10.078Z,6.87
2023-04-14T07:25:38.191Z,7.33
2023-04-14T07:28:06.191Z,7.30
2023-04-14T07:30:35.023Z,8.57
2023-04-14T07:33:02.997Z,8.07
2023-04-14T07:35:30.918Z,7.20
2023-04-14T07:37:58.385Z,6.23
2023-04-14T07:40:25.883Z,6.90
2023-04-14T07:42:53.362Z,6.57
2023-04-14T07:45:20.847Z,5.23
2023-04-14T07:47:49.668Z,6.37
2023-04-14T07:50:19.636Z,7.07
2023-04-14T07:52:47.567Z,6.87
2023-04-14T07:55:15.065Z,6.53
2023-04-14T07:57:42.531Z,7.07
2023-04-14T08:00:11.262Z,7.37
2023-04-14T08:02:39.028Z,6.77
2023-04-14T08:05:08.484Z,6.93
2023-04-14T08:07:36.044Z,6.30
2023-04-14T08:10:03.678Z,5.97
2023-04-14T08:12:31.435Z,6.43
2023-04-14T08:14:58.892Z,6.40
2023-04-14T08:17:27.177Z,6.20
2023-04-14T08:19:55.365Z,6.47
2023-04-14T08:22:25.504Z,5.57
2023-04-14T08:24:52.967Z,6.00
2023-04-14T08:27:20.424Z,5.97
2023-04-14T08:29:48.075Z,5.10
2023-04-14T08:32:15.645Z,6.07
2023-04-14T08:35:37.306Z,5.87
2023-04-14T08:37:32.737Z,5.73
2023-04-14T08:40:00.443Z,5.93
2023-04-14T08:42:28.017Z,5.63
2023-04-14T08:44:56.419Z,5.60
2023-04-14T08:47:25.476Z,4.90
2023-04-14T08:49:57.923Z,6.33
2023-04-14T08:52:28.816Z,6.10
2023-04-14T08:55:01.081Z,5.35
2023-04-14T08:57:30.306Z,4.90
2023-04-14T08:59:58.272Z,5.33
2023-04-14T09:02:26.657Z,5.10
2023-04-14T09:04:54.945Z,5.20
2023-04-14T09:07:24.118Z,4.40
2023-04-14T09:09:52.339Z,3.83
2023-04-14T09:12:22.701Z,4.77
2023-04-14T09:14:53.215Z,4.93
2023-04-14T09:17:21.218Z,5.13
2023-04-14T09:20:37.288Z,4.60
2023-04-14T09:22:36.934Z,5.27
2023-04-14T09:25:05.252Z,3.90
2023-04-14T09:27:34.467Z,5.23
2023-04-14T09:30:02.424Z,4.40
2023-04-14T09:32:30.528Z,4.72
2023-04-14T09:34:58.593Z,4.63
2023-04-14T09:37:26.888Z,5.47
2023-04-14T09:39:55.600Z,5.90
2023-04-14T09:42:39.992Z,5.33
2023-04-14T09:45:09.506Z,5.77
2023-04-14T09:47:37.515Z,4.57
2023-04-14T09:50:05.573Z,6.17
2023-04-14T09:52:40.305Z,5.97
2023-04-14T09:55:10.432Z,5.90
2023-04-14T09:57:42.333Z,5.55
2023-04-14T10:00:21.469Z,4.00
2023-04-14T10:02:50.229Z,5.53
2023-04-14T10:05:20.686Z,6.32
2023-04-14T10:07:49.105Z,5.68
2023-04-14T10:10:17.292Z,5.90
2023-04-14T10:12:47.090Z,6.10
2023-04-14T10:15:15.334Z,5.45
2023-04-14T10:17:43.348Z,4.93
2023-04-14T10:20:11.546Z,5.13
2023-04-14T10:22:40.984Z,4.30
2023-04-14T10:25:11.035Z,5.55
2023-04-14T10:27:40.153Z,4.35
2023-04-14T10:30:10.089Z,7.53
2023-04-14T10:32:40.509Z,5.22
2023-04-14T10:35:11.132Z,5.80
2023-04-14T10:37:38.704Z,5.10
2023-04-14T10:40:08.064Z,5.45
2023-04-14T10:42:54.949Z,5.43
2023-04-14T10:45:23.887Z,5.60
2023-04-14T10:47:52.017Z,5.60
2023-04-14T10:50:25.108Z,5.43
2023-04-14T10:52:55.852Z,5.38
2023-04-14T10:55:25.129Z,5.15
2023-04-14T10:57:54.490Z,5.55
2023-04-14T11:00:28.410Z,5.20
2023-04-14T11:02:58.792Z,5.18
2023-04-14T11:05:27.043Z,4.82
2023-04-14T11:07:58.807Z,4.72
2023-04-14T11:10:37.467Z,5.45
2023-04-14T11:13:07.325Z,5.40
2023-04-14T11:15:46.897Z,6.18
2023-04-14T11:18:16.317Z,4.53
2023-04-14T11:20:44.893Z,4.40
2023-04-14T11:23:13.979Z,4.03
2023-04-14T11:25:41.562Z,4.72
2023-04-14T11:28:09.066Z,5.10
2023-04-14T11:30:36.546Z,5.55
2023-04-14T11:33:05.562Z,4.20
2023-04-14T11:35:33.116Z,5.13
2023-04-14T11:38:01.673Z,4.43
2023-04-14T11:40:29.370Z,4.53
2023-04-14T11:42:58.879Z,5.32
2023-04-14T11:45:28.626Z,4.90
2023-04-14T11:48:00.828Z,4.63
2023-04-14T11:50:32.878Z,5.22
2023-04-14T11:53:01.039Z,5.38
2023-04-14T11:55:29.301Z,5.82
2023-04-14T11:57:57.968Z,5.00
2023-04-14T12:00:26.340Z,4.90
2023-04-14T12:02:54.063Z,4.22
2023-04-14T12:05:25.298Z,5.50
2023-04-14T12:07:59.714Z,5.15
2023-04-14T12:10:28.015Z,5.20
2023-04-14T12:13:00.835Z,6.50
2023-04-14T12:15:28.670Z,5.07
2023-04-14T12:17:57.123Z,5.90
2023-04-14T12:20:25.085Z,4.95
2023-04-14T12:22:53.965Z,4.90
2023-04-14T12:25:21.519Z,5.80
2023-04-14T12:27:55.783Z,5.20
2023-04-14T12:30:26.345Z,5.43
2023-04-14T12:32:53.896Z,4.57
2023-04-14T12:35:23.851Z,5.32
2023-04-14T12:37:51.704Z,4.88
2023-04-14T12:40:38.491Z,4.95
2023-04-14T12:43:06.186Z,4.78
2023-04-14T12:45:44.654Z,3.75
2023-04-14T12:48:13.035Z,4.57
2023-04-14T12:50:41.453Z,4.07
2023-04-14T12:53:25.969Z,3.55
2023-04-14T12:56:11.605Z,4.45
2023-04-14T12:58:40.338Z,3.78
2023-04-14T13:01:09.052Z,3.83
2023-04-14T13:03:45.792Z,3.30
2023-04-14T13:06:16.218Z,2.90
2023-04-14T13:08:44.690Z,3.40
2023-04-14T13:11:14.001Z,3.20
2023-04-14T13:13:41.600Z,3.75
2023-04-14T13:16:13.519Z,3.80
2023-04-14T13:18:43.113Z,3.10
2023-04-14T13:21:10.812Z,2.72
2023-04-14T13:23:38.282Z,4.15
2023-04-14T13:26:05.956Z,3.70
2023-04-14T13:28:35.070Z,2.85
2023-04-14T13:31:02.614Z,2.90
2023-04-14T13:33:30.132Z,2.80
2023-04-14T13:35:57.674Z,2.65
2023-04-14T13:38:25.429Z,3.03
2023-04-14T13:40:52.944Z,2.85
2023-04-14T13:43:20.507Z,3.28
2023-04-14T13:45:49.386Z,3.72
2023-04-14T13:48:17.150Z,2.67
2023-04-14T13:50:44.652Z,2.75
2023-04-14T13:53:12.446Z,2.97
2023-04-14T13:55:40.004Z,2.75
2023-04-14T13:58:07.472Z,2.78
2023-04-14T14:00:35.041Z,2.88
2023-04-14T14:03:04.278Z,2.97
2023-04-14T14:05:31.860Z,2.58
2023-04-14T14:07:59.332Z,3.20
2023-04-14T14:10:26.950Z,3.17
2023-04-14T14:12:54.490Z,2.63
2023-04-14T14:15:21.965Z,3.30
2023-04-14T14:17:49.442Z,3.00
2023-04-14T14:20:18.407Z,2.40
2023-04-14T14:22:45.874Z,2.20
2023-04-14T14:25:20.328Z,2.03
2023-04-14T14:27:49.127Z,1.77
2023-04-14T14:30:16.714Z,1.80
2023-04-14T14:32:44.230Z,1.70
2023-04-14T14:35:11.723Z,1.63
2023-04-14T14:37:42.064Z,2.83
2023-04-14T14:40:10.592Z,2.03
2023-04-14T14:42:38.147Z,1.95
2023-04-14T14:45:06.847Z,1.70
2023-04-14T14:47:34.591Z,2.10
2023-04-14T14:50:06.893Z,2.22
2023-04-14T14:52:35.475Z,1.85
2023-04-14T14:55:05.154Z,1.80
2023-04-14T14:57:32.681Z,2.38
2023-04-14T15:00:00.179Z,1.70
2023-04-14T15:02:27.765Z,2.17
2023-04-14T15:04:55.558Z,2.20
2023-04-14T15:07:23.033Z,1.87
2023-04-14T15:09:51.278Z,2.20
2023-04-14T15:12:20.250Z,2.60
2023-04-14T15:14:48.349Z,2.53
2023-04-14T15:17:16.647Z,2.33
2023-04-14T15:19:44.669Z,2.37
2023-04-14T15:22:12.133Z,2.47
2023-04-14T15:24:39.639Z,2.03
2023-04-14T15:27:07.089Z,2.07
2023-04-14T15:29:35.908Z,2.10
2023-04-14T15:32:03.386Z,4.23
2023-04-14T15:34:31.145Z,2.70
2023-04-14T15:36:58.696Z,2.27
2023-04-14T15:39:26.827Z,3.50
2023-04-14T15:41:54.260Z,2.17
2023-04-14T15:44:21.778Z,2.63
2023-04-14T15:46:50.884Z,2.20
2023-04-14T15:49:18.498Z,1.90
2023-04-14T15:51:45.940Z,2.40
2023-04-14T15:54:13.407Z,3.13
2023-04-14T15:56:40.843Z,3.47
2023-04-14T15:59:08.587Z,2.30
2023-04-14T16:01:36.211Z,6.73
2023-04-14T16:04:05.626Z,4.30
2023-04-14T16:06:33.975Z,2.30
2023-04-14T16:09:01.974Z,4.23
2023-04-14T16:11:30.585Z,6.97
2023-04-14T16:13:58.101Z,1.90
2023-04-14T16:16:25.871Z,3.93
2023-04-14T16:18:53.880Z,5.55
2023-04-14T16:21:22.698Z,5.97
2023-04-14T16:23:50.741Z,3.10
2023-04-14T16:26:18.191Z,4.57
2023-04-14T16:28:46.083Z,2.20
2023-04-14T16:31:13.680Z,2.23
2023-04-14T16:33:41.268Z,2.13
2023-04-14T16:36:08.783Z,2.43
2023-04-14T16:38:37.586Z,2.80
2023-04-14T16:41:05.071Z,2.33
2023-04-14T16:43:32.731Z,2.63
2023-04-14T16:46:04.166Z,3.43
2023-04-14T16:48:32.449Z,2.97
2023-04-14T16:51:05.073Z,3.80
2023-04-14T16:53:33.579Z,2.27
2023-04-14T16:56:05.499Z,2.40
2023-04-14T16:58:33.011Z,2.20
2023-04-14T17:01:00.544Z,3.67
2023-04-14T17:03:28.280Z,3.23
2023-04-14T17:05:56.223Z,3.03
2023-04-14T17:08:23.791Z,2.53
2023-04-14T17:10:51.619Z,3.10
2023-04-14T17:13:21.283Z,2.97
2023-04-14T17:15:58.436Z,2.70
2023-04-14T17:18:33.569Z,3.37
2023-04-14T17:21:01.237Z,3.00
2023-04-14T17:23:28.747Z,3.23
2023-04-14T17:25:57.986Z,3.10
2023-04-14T17:28:27.231Z,2.83
2023-04-14T17:30:54.781Z,3.17
2023-04-14T17:33:23.582Z,3.07
2023-04-14T17:35:51.091Z,2.90
2023-04-14T17:38:18.926Z,2.90
2023-04-14T17:40:46.531Z,2.73
2023-04-14T17:43:14.054Z,2.80
2023-04-14T17:45:45.994Z,3.20
2023-04-14T17:48:13.617Z,3.50
2023-04-14T17:50:41.140Z,3.80
2023-04-14T17:53:08.628Z,4.17
2023-04-14T17:55:37.668Z,4.17
2023-04-14T17:58:05.676Z,3.70
2023-04-14T18:00:33.842Z,3.20
2023-04-14T18:03:03.997Z,3.07
2023-04-14T18:05:31.647Z,3.20
2023-04-14T18:07:59.121Z,3.23
2023-04-14T18:10:26.964Z,3.17
2023-04-14T18:12:54.434Z,3.13
2023-04-14T18:15:23.582Z,7.10
2023-04-14T18:17:51.529Z,3.80
2023-04-14T18:20:24.898Z,4.80
2023-04-14T18:22:54.077Z,4.57
2023-04-14T18:25:21.832Z,3.70
2023-04-14T18:30:20.105Z,4.67
2023-04-14T18:32:47.686Z,3.50
2023-04-14T18:35:15.691Z,5.60
2023-04-14T18:37:46.300Z,6.00
2023-04-14T18:40:13.861Z,5.43
2023-04-14T18:42:41.402Z,4.77
2023-04-14T18:45:09.785Z,4.47
2023-04-14T18:47:37.780Z,5.33
2023-04-14T18:50:05.955Z,4.73
2023-04-14T18:52:33.455Z,5.47
2023-04-14T18:55:03.204Z,4.20
2023-04-14T18:57:30.743Z,4.03
2023-04-14T18:59:58.389Z,4.40
2023-04-14T19:02:26.047Z,4.40
2023-04-14T19:04:53.752Z,4.33
2023-04-14T19:07:21.290Z,4.03
2023-04-14T19:09:49.066Z,4.00
2023-04-14T19:12:27.606Z,4.33
2023-04-14T19:14:56.039Z,4.20
2023-04-14T19:17:23.876Z,4.40
2023-04-14T19:19:51.364Z,4.30
2023-04-14T19:22:19.120Z,4.50
2023-04-14T19:24:46.640Z,4.33
2023-04-14T19:27:14.079Z,4.10
2023-04-14T19:29:42.911Z,4.23
2023-04-14T19:32:10.366Z,4.43
2023-04-14T19:34:38.126Z,4.33
2023-04-14T19:37:05.628Z,4.40
2023-04-14T19:39:33.100Z,4.20
2023-04-14T19:42:01.548Z,4.10
2023-04-14T19:44:29.004Z,3.70
2023-04-14T19:46:57.835Z,3.90
2023-04-14T19:49:26.313Z,4.17
2023-04-14T19:51:54.354Z,4.50
2023-04-14T19:54:21.801Z,4.00
2023-04-14T19:56:49.325Z,3.90
2023-04-14T19:59:16.820Z,4.10
2023-04-14T20:01:44.976Z,3.87
2023-04-14T20:04:14.567Z,4.30
2023-04-14T20:06:42.809Z,4.33
2023-04-14T20:09:10.614Z,4.13
2023-04-14T20:11:38.082Z,3.80
2023-04-14T20:14:05.812Z,3.90
2023-04-14T20:16:33.455Z,4.20
2023-04-14T20:19:01.586Z,4.27
2023-04-14T20:21:30.914Z,4.27
2023-04-14T20:23:59.320Z,3.93
2023-04-14T20:26:27.463Z,3.80
2023-04-14T20:28:56.044Z,3.97
2023-04-14T20:31:24.284Z,4.13
2023-04-14T20:33:51.898Z,3.97
2023-04-14T20:36:19.374Z,3.67
2023-04-14T20:38:48.236Z,3.77
2023-04-14T20:41:15.711Z,4.33
2023-04-14T20:43:43.511Z,3.77
2023-04-14T20:46:11.161Z,3.90
2023-04-14T20:48:38.685Z,3.90
2023-04-14T20:51:06.399Z,3.60
2023-04-14T20:53:35.022Z,4.50
2023-04-14T20:56:04.311Z,4.37
2023-04-14T20:58:31.793Z,4.50
2023-04-14T21:00:59.316Z,4.30
2023-04-14T21:03:27.813Z,4.60
2023-04-14T21:05:55.793Z,4.93
2023-04-14T21:08:23.291Z,4.37
2023-04-14T21:11:16.353Z,4.27
2023-04-14T21:15:26.292Z,4.27
2023-04-14T21:16:28.524Z,4.40
2023-04-14T21:18:56.012Z,4.90
2023-04-14T21:21:23.528Z,5.30
2023-04-14T21:23:51.205Z,4.80
2023-04-14T21:26:18.761Z,4.87
2023-04-14T21:28:47.605Z,5.07
2023-04-14T21:31:15.685Z,5.73
2023-04-14T21:33:43.194Z,5.23
2023-04-14T21:36:10.847Z,5.17
2023-04-14T21:38:39.086Z,5.90
2023-04-14T21:41:07.758Z,5.47
2023-04-14T21:43:36.046Z,6.03
2023-04-14T21:46:05.394Z,5.70
2023-04-14T21:48:32.927Z,5.73
2023-04-14T21:51:00.623Z,5.83
2023-04-14T21:53:28.188Z,6.47
2023-04-14T21:56:09.358Z,6.57
2023-04-14T21:58:38.058Z,6.13
2023-04-14T22:01:09.460Z,6.27
2023-04-14T22:03:37.861Z,6.27
2023-04-14T22:06:06.175Z,6.37
2023-04-14T22:08:33.699Z,6.67
2023-04-14T22:11:01.381Z,7.17
2023-04-14T22:13:28.885Z,7.37
2023-04-14T22:15:56.561Z,7.13
2023-04-14T22:18:25.827Z,7.17
2023-04-14T22:20:53.317Z,7.30
2023-04-14T22:23:20.902Z,7.10
2023-04-14T22:25:48.418Z,7.60
2023-04-14T22:28:15.889Z,7.00
2023-04-14T22:30:43.957Z,6.30
2023-04-14T22:33:11.456Z,6.93
2023-04-14T22:35:40.611Z,7.70
2023-04-14T22:38:08.182Z,7.43
2023-04-14T22:40:35.945Z,7.10
2023-04-14T22:43:08.533Z,7.40
2023-04-14T22:45:37.005Z,6.47
2023-04-14T22:48:05.395Z,6.60
2023-04-14T22:50:33.705Z,7.37
2023-04-14T22:53:02.812Z,8.13
2023-04-14T22:55:30.654Z,8.57
2023-04-14T22:57:58.145Z,7.97
2023-04-14T23:00:26.646Z,8.77
2023-04-14T23:02:55.620Z,6.17
2023-04-14T23:05:23.325Z,8.20
2023-04-14T23:07:51.086Z,8.30
2023-04-14T23:10:20.232Z,8.73
2023-04-14T23:12:47.789Z,8.17
2023-04-14T23:15:15.287Z,8.30
2023-04-14T23:17:42.830Z,8.23
2023-04-14T23:20:10.919Z,8.90
2023-04-14T23:22:38.526Z,8.47
2023-04-14T23:25:07.181Z,7.63
2023-04-14T23:27:36.316Z,8.47
2023-04-14T23:30:05.339Z,8.50
2023-04-14T23:32:33.725Z,8.40
2023-04-14T23:35:01.614Z,8.50
2023-04-14T23:37:29.083Z,8.43
2023-04-14T23:39:57.344Z,8.70
2023-04-14T23:42:24.812Z,7.20
2023-04-14T23:44:53.626Z,8.57
2023-04-14T23:47:21.558Z,8.70
2023-04-14T23:49:49.044Z,8.70
2023-04-14T23:52:16.509Z,7.53
2023-04-14T23:54:43.969Z,8.33
2023-04-14T23:57:11.434Z,7.27
2023-04-14T23:59:38.920Z,7.60
